createdAt,value
2022-09-18T02:00:47.360Z,0.30
2022-09-18T02:01:07.994Z,0.20
2022-09-18T02:01:28.800Z,0.30
2022-09-18T02:01:49.596Z,0.30
2022-09-18T02:02:10.315Z,0.20
2022-09-18T02:02:31.153Z,0.20
2022-09-18T02:02:51.955Z,0.30
2022-09-18T02:03:12.552Z,0.30
2022-09-18T02:03:33.132Z,0.40
2022-09-18T02:03:53.715Z,0.30
2022-09-18T02:04:14.312Z,0.30
2022-09-18T02:04:34.883Z,0.30
2022-09-18T02:04:55.468Z,0.20
2022-09-18T02:05:16.047Z,0.20
2022-09-18T02:05:36.644Z,0.20
2022-09-18T02:05:57.231Z,0.30
2022-09-18T02:06:17.807Z,0.20
2022-09-18T02:06:38.399Z,0.30
2022-09-18T02:06:58.984Z,0.30
2022-09-18T02:07:19.569Z,0.30
2022-09-18T02:07:40.147Z,0.20
2022-09-18T02:08:00.732Z,0.30
2022-09-18T02:08:21.316Z,0.20
2022-09-18T02:08:41.715Z,0.30
2022-09-18T02:09:02.388Z,0.30
2022-09-18T02:09:22.970Z,0.20
2022-09-18T02:09:43.554Z,0.20
2022-09-18T02:10:04.134Z,0.20
2022-09-18T02:10:24.733Z,0.20
2022-09-18T02:10:45.130Z,0.20
2022-09-18T02:11:05.714Z,0.20
2022-09-18T02:11:26.303Z,0.20
2022-09-18T02:11:46.885Z,0.20
2022-09-18T02:12:07.472Z,0.20
2022-09-18T02:12:28.059Z,0.30
2022-09-18T02:12:48.640Z,0.30
2022-09-18T02:13:15.862Z,0.20
2022-09-18T02:13:31.161Z,0.20
2022-09-18T02:13:51.744Z,0.30
2022-09-18T02:14:12.325Z,0.20
2022-09-18T02:14:32.719Z,0.20
2022-09-18T02:14:53.296Z,0.30
2022-09-18T02:15:13.696Z,0.30
2022-09-18T02:15:34.294Z,0.40
2022-09-18T02:15:55.056Z,0.20
2022-09-18T02:16:15.705Z,0.20
2022-09-18T02:16:36.360Z,0.20
2022-09-18T02:16:56.942Z,0.30
2022-09-18T02:17:17.523Z,0.30
2022-09-18T02:17:38.103Z,0.20
2022-09-18T02:17:58.690Z,0.20
2022-09-18T02:18:19.271Z,0.20
2022-09-18T02:18:39.851Z,0.20
2022-09-18T02:19:00.435Z,0.20
2022-09-18T02:19:21.016Z,0.30
2022-09-18T02:19:41.602Z,0.30
2022-09-18T02:20:02.183Z,0.30
2022-09-18T02:20:22.591Z,0.30
2022-09-18T02:20:43.174Z,0.20
2022-09-18T02:21:03.760Z,0.20
2022-09-18T02:21:24.339Z,0.30
2022-09-18T02:21:44.920Z,0.40
2022-09-18T02:22:05.507Z,0.20
2022-09-18T02:22:26.092Z,0.30
2022-09-18T02:22:46.674Z,0.20
2022-09-18T02:23:07.258Z,0.20
2022-09-18T02:23:27.840Z,0.20
2022-09-18T02:23:48.420Z,0.30
2022-09-18T02:24:09.003Z,0.30
2022-09-18T02:24:29.588Z,0.30
2022-09-18T02:24:50.169Z,0.20
2022-09-18T02:25:10.748Z,0.20
2022-09-18T02:25:31.343Z,0.20
2022-09-18T02:25:51.929Z,0.20
2022-09-18T02:26:12.509Z,0.30
2022-09-18T02:26:33.089Z,0.30
2022-09-18T02:26:53.672Z,0.20
2022-09-18T02:27:14.255Z,0.30
2022-09-18T02:27:34.839Z,0.30
2022-09-18T02:27:55.422Z,0.30
2022-09-18T02:28:16.006Z,0.30
2022-09-18T02:28:36.585Z,0.20
2022-09-18T02:28:57.167Z,0.20
2022-09-18T02:29:17.756Z,0.20
2022-09-18T02:29:38.340Z,0.20
2022-09-18T02:29:58.922Z,0.30
2022-09-18T02:30:19.523Z,0.30
2022-09-18T02:30:40.105Z,0.20
2022-09-18T02:31:00.887Z,0.30
2022-09-18T02:31:21.527Z,0.20
2022-09-18T02:31:42.241Z,0.30
2022-09-18T02:32:02.551Z,0.30
2022-09-18T02:32:23.124Z,0.20
2022-09-18T02:32:43.715Z,0.30
2022-09-18T02:33:04.291Z,0.30
2022-09-18T02:33:24.689Z,0.30
2022-09-18T02:33:45.271Z,0.20
2022-09-18T02:34:05.854Z,0.20
2022-09-18T02:34:26.432Z,0.20
2022-09-18T02:34:47.014Z,0.30
2022-09-18T02:35:07.598Z,0.30
2022-09-18T02:35:28.192Z,0.20
2022-09-18T02:35:48.587Z,0.20
2022-09-18T02:36:09.172Z,0.20
2022-09-18T02:36:29.755Z,0.20
2022-09-18T02:36:50.340Z,0.30
2022-09-18T02:37:10.921Z,0.30
2022-09-18T02:37:31.512Z,0.30
2022-09-18T02:37:52.083Z,0.30
2022-09-18T02:38:12.666Z,0.20
2022-09-18T02:38:33.248Z,0.30
2022-09-18T02:38:53.835Z,0.30
2022-09-18T02:39:14.413Z,0.30
2022-09-18T02:39:34.999Z,0.30
2022-09-18T02:39:55.636Z,0.30
2022-09-18T02:40:16.265Z,0.30
2022-09-18T02:40:36.896Z,0.30
2022-09-18T02:40:57.247Z,0.40
2022-09-18T02:41:17.830Z,0.30
2022-09-18T02:41:38.412Z,0.20
2022-09-18T02:41:58.996Z,0.30
2022-09-18T02:42:19.581Z,0.30
2022-09-18T02:42:39.974Z,0.30
2022-09-18T02:43:00.555Z,0.20
2022-09-18T02:43:21.136Z,0.30
2022-09-18T02:43:41.720Z,0.40
2022-09-18T02:44:02.301Z,0.40
2022-09-18T02:44:22.872Z,0.30
2022-09-18T02:44:43.463Z,0.30
2022-09-18T02:45:04.033Z,0.30
2022-09-18T02:45:24.627Z,0.30
2022-09-18T02:45:45.211Z,0.30
2022-09-18T02:46:05.996Z,0.30
2022-09-18T02:46:26.613Z,0.30
2022-09-18T02:46:47.298Z,0.40
2022-09-18T02:47:07.853Z,0.30
2022-09-18T02:47:28.437Z,0.20
2022-09-18T02:47:49.021Z,0.30
2022-09-18T02:48:09.600Z,0.30
2022-09-18T02:48:29.997Z,0.30
2022-09-18T02:48:50.650Z,0.30
2022-09-18T02:49:11.232Z,0.30
2022-09-18T02:49:31.810Z,0.30
2022-09-18T02:49:52.392Z,0.30
2022-09-18T02:50:12.982Z,0.30
2022-09-18T02:50:33.581Z,0.40
2022-09-18T02:50:54.162Z,0.30
2022-09-18T02:51:14.745Z,0.30
2022-09-18T02:51:35.328Z,0.30
2022-09-18T02:51:55.909Z,0.60
2022-09-18T02:52:16.495Z,0.30
2022-09-18T02:52:37.077Z,0.30
2022-09-18T02:52:57.659Z,0.30
2022-09-18T02:53:18.245Z,0.40
2022-09-18T02:53:38.638Z,0.40
2022-09-18T02:53:59.263Z,0.30
2022-09-18T02:54:19.860Z,0.40
2022-09-18T02:54:40.447Z,0.40
2022-09-18T02:55:01.025Z,0.30
2022-09-18T02:55:21.619Z,0.30
2022-09-18T02:55:42.201Z,0.40
2022-09-18T02:56:02.783Z,0.40
2022-09-18T02:56:23.366Z,0.40
2022-09-18T02:56:43.948Z,0.40
2022-09-18T02:57:04.533Z,0.40
2022-09-18T02:57:25.116Z,0.40
2022-09-18T02:57:45.699Z,0.30
2022-09-18T02:58:06.282Z,0.40
2022-09-18T02:58:26.861Z,0.40
2022-09-18T02:58:47.444Z,0.40
2022-09-18T02:59:08.027Z,0.40
2022-09-18T02:59:28.608Z,0.40
2022-09-18T02:59:49.190Z,0.40
2022-09-18T03:00:09.779Z,0.50
2022-09-18T03:00:30.372Z,0.50
2022-09-18T03:00:50.954Z,0.50
2022-09-18T03:01:11.692Z,0.40
2022-09-18T03:01:32.335Z,0.40
2022-09-18T03:01:53.146Z,0.30
2022-09-18T03:02:14.010Z,0.50
2022-09-18T03:02:34.762Z,0.50
2022-09-18T03:02:55.455Z,0.40
2022-09-18T03:03:16.047Z,0.50
2022-09-18T03:03:36.634Z,0.40
2022-09-18T03:03:57.221Z,0.30
2022-09-18T03:04:17.803Z,0.40
2022-09-18T03:04:38.392Z,0.50
2022-09-18T03:04:58.975Z,0.50
2022-09-18T03:05:19.576Z,0.50
2022-09-18T03:05:40.161Z,0.40
2022-09-18T03:06:00.740Z,0.50
2022-09-18T03:06:21.323Z,0.40
2022-09-18T03:06:41.904Z,0.50
2022-09-18T03:07:02.488Z,0.50
2022-09-18T03:07:23.068Z,0.40
2022-09-18T03:07:43.652Z,0.50
2022-09-18T03:08:04.235Z,0.40
2022-09-18T03:08:24.634Z,0.40
2022-09-18T03:08:45.217Z,0.40
2022-09-18T03:09:05.807Z,0.40
2022-09-18T03:09:26.391Z,1.00
2022-09-18T03:09:46.974Z,0.50
2022-09-18T03:10:07.565Z,0.50
2022-09-18T03:10:28.154Z,0.60
2022-09-18T03:10:48.732Z,0.50
2022-09-18T03:11:09.312Z,0.40
2022-09-18T03:11:29.712Z,0.50
2022-09-18T03:11:50.296Z,0.50
2022-09-18T03:12:10.689Z,0.50
2022-09-18T03:12:31.272Z,0.50
2022-09-18T03:12:51.855Z,0.40
2022-09-18T03:13:12.439Z,0.50
2022-09-18T03:13:33.025Z,0.50
2022-09-18T03:13:53.602Z,0.60
2022-09-18T03:14:14.189Z,0.60
2022-09-18T03:14:34.771Z,0.50
2022-09-18T03:14:55.356Z,0.40
2022-09-18T03:15:15.938Z,0.50
2022-09-18T03:15:36.541Z,0.60
2022-09-18T03:15:57.224Z,0.90
2022-09-18T03:16:18.038Z,0.60
2022-09-18T03:16:38.657Z,0.50
2022-09-18T03:16:59.241Z,0.50
2022-09-18T03:17:19.822Z,0.50
2022-09-18T03:17:40.405Z,0.50
2022-09-18T03:18:00.991Z,0.40
2022-09-18T03:18:21.580Z,0.60
2022-09-18T03:18:42.160Z,0.50
2022-09-18T03:19:02.553Z,0.60
2022-09-18T03:19:23.141Z,0.60
2022-09-18T03:19:43.720Z,0.60
2022-09-18T03:20:04.302Z,0.40
2022-09-18T03:20:24.897Z,0.50
2022-09-18T03:20:45.479Z,0.50
2022-09-18T03:21:06.062Z,0.50
2022-09-18T03:21:26.644Z,0.60
2022-09-18T03:21:47.220Z,0.60
2022-09-18T03:22:07.808Z,0.60
2022-09-18T03:22:28.389Z,0.60
2022-09-18T03:22:48.976Z,0.50
2022-09-18T03:23:09.555Z,0.50
2022-09-18T03:23:30.141Z,0.50
2022-09-18T03:23:50.724Z,0.40
2022-09-18T03:24:11.306Z,0.50
2022-09-18T03:24:31.890Z,0.60
2022-09-18T03:24:52.473Z,0.70
2022-09-18T03:25:13.053Z,0.50
2022-09-18T03:25:33.651Z,0.50
2022-09-18T03:25:54.234Z,0.50
2022-09-18T03:26:14.820Z,0.70
2022-09-18T03:26:35.408Z,0.60
2022-09-18T03:26:55.990Z,0.60
2022-09-18T03:27:16.574Z,0.70
2022-09-18T03:27:37.152Z,0.60
2022-09-18T03:27:57.734Z,0.60
2022-09-18T03:28:18.319Z,0.60
2022-09-18T03:28:38.708Z,0.70
2022-09-18T03:28:59.290Z,0.70
2022-09-18T03:29:19.685Z,0.70
2022-09-18T03:29:40.272Z,0.70
2022-09-18T03:30:00.854Z,0.60
2022-09-18T03:30:21.447Z,0.70
2022-09-18T03:30:42.030Z,0.50
2022-09-18T03:31:02.726Z,0.50
2022-09-18T03:31:23.196Z,0.50
2022-09-18T03:31:43.910Z,0.60
2022-09-18T03:32:04.490Z,0.60
2022-09-18T03:32:25.072Z,0.50
2022-09-18T03:32:45.655Z,0.60
2022-09-18T03:33:06.237Z,0.60
2022-09-18T03:33:26.819Z,0.50
2022-09-18T03:33:47.405Z,0.60
2022-09-18T03:34:07.801Z,0.80
2022-09-18T03:34:28.387Z,0.60
2022-09-18T03:34:48.973Z,0.60
2022-09-18T03:35:09.557Z,0.60
2022-09-18T03:35:30.151Z,0.60
2022-09-18T03:35:50.731Z,0.50
2022-09-18T03:36:11.308Z,0.60
2022-09-18T03:36:31.898Z,0.70
2022-09-18T03:36:52.478Z,0.70
2022-09-18T03:37:13.068Z,0.50
2022-09-18T03:37:33.650Z,0.60
2022-09-18T03:37:54.232Z,0.50
2022-09-18T03:38:14.814Z,0.50
2022-09-18T03:38:35.394Z,0.60
2022-09-18T03:38:55.980Z,0.60
2022-09-18T03:39:16.562Z,0.60
2022-09-18T03:39:37.145Z,0.60
2022-09-18T03:39:57.790Z,0.70
2022-09-18T03:40:18.433Z,0.80
2022-09-18T03:40:39.099Z,0.60
2022-09-18T03:40:59.668Z,0.60
2022-09-18T03:41:20.249Z,0.60
2022-09-18T03:41:40.830Z,0.60
2022-09-18T03:42:01.415Z,0.50
2022-09-18T03:42:21.994Z,0.60
2022-09-18T03:42:42.578Z,0.60
2022-09-18T03:43:03.163Z,0.50
2022-09-18T03:43:23.551Z,0.50
2022-09-18T03:43:44.129Z,0.60
2022-09-18T03:44:04.711Z,0.60
2022-09-18T03:44:25.296Z,0.60
2022-09-18T03:44:45.880Z,0.60
2022-09-18T03:45:06.461Z,0.60
2022-09-18T03:45:27.055Z,0.70
2022-09-18T03:45:47.642Z,0.70
2022-09-18T03:46:08.258Z,0.90
2022-09-18T03:46:29.021Z,0.80
2022-09-18T03:46:49.744Z,0.60
2022-09-18T03:47:10.331Z,0.50
2022-09-18T03:47:36.150Z,0.70
2022-09-18T03:47:51.318Z,0.80
2022-09-18T03:48:11.902Z,0.70
2022-09-18T03:48:32.489Z,0.60
2022-09-18T03:48:53.066Z,0.70
2022-09-18T03:49:13.655Z,0.80
2022-09-18T03:49:34.236Z,0.90
2022-09-18T03:49:54.820Z,0.70
2022-09-18T03:50:15.404Z,0.80
2022-09-18T03:50:35.997Z,0.60
2022-09-18T03:50:56.587Z,0.80
2022-09-18T03:51:17.159Z,0.80
2022-09-18T03:51:37.743Z,0.60
2022-09-18T03:51:58.321Z,0.50
2022-09-18T03:52:18.905Z,0.70
2022-09-18T03:52:39.489Z,0.70
2022-09-18T03:53:00.064Z,0.70
2022-09-18T03:53:20.640Z,0.60
2022-09-18T03:53:41.224Z,0.50
2022-09-18T03:54:01.895Z,0.80
2022-09-18T03:54:22.500Z,0.70
2022-09-18T03:54:43.087Z,0.60
2022-09-18T03:55:03.666Z,0.60
2022-09-18T03:55:24.267Z,0.60
2022-09-18T03:55:44.843Z,0.70
2022-09-18T03:56:05.426Z,0.70
2022-09-18T03:56:26.009Z,0.60
2022-09-18T03:56:46.596Z,0.60
2022-09-18T03:57:07.170Z,0.70
2022-09-18T03:57:27.752Z,0.80
2022-09-18T03:57:48.333Z,0.80
2022-09-18T03:58:08.919Z,0.70
2022-09-18T03:58:29.501Z,0.70
2022-09-18T03:58:50.083Z,0.80
2022-09-18T03:59:10.666Z,0.80
2022-09-18T03:59:31.250Z,0.90
2022-09-18T03:59:51.829Z,0.90
2022-09-18T04:00:12.410Z,0.70
2022-09-18T04:00:33.013Z,0.70
2022-09-18T04:00:53.592Z,0.80
2022-09-18T04:01:14.179Z,0.60
2022-09-18T04:01:34.944Z,1.00
2022-09-18T04:01:55.541Z,0.70
2022-09-18T04:02:16.215Z,0.70
2022-09-18T04:02:36.821Z,0.70
2022-09-18T04:02:57.261Z,0.80
2022-09-18T04:03:17.995Z,0.80
2022-09-18T04:03:38.556Z,0.70
2022-09-18T04:03:59.138Z,0.70
2022-09-18T04:04:19.529Z,0.90
2022-09-18T04:04:40.114Z,0.90
2022-09-18T04:05:00.699Z,0.90
2022-09-18T04:05:21.297Z,0.80
2022-09-18T04:05:41.880Z,0.80
2022-09-18T04:06:02.463Z,0.80
2022-09-18T04:06:23.047Z,0.80
2022-09-18T04:06:43.630Z,1.20
2022-09-18T04:07:04.224Z,0.90
2022-09-18T04:07:24.792Z,1.00
2022-09-18T04:07:45.374Z,0.80
2022-09-18T04:08:05.953Z,0.60
2022-09-18T04:08:26.538Z,0.90
2022-09-18T04:08:47.121Z,0.90
2022-09-18T04:09:07.713Z,0.70
2022-09-18T04:09:28.295Z,0.80
2022-09-18T04:09:48.882Z,0.80
2022-09-18T04:10:09.464Z,0.90
2022-09-18T04:10:30.068Z,1.20
2022-09-18T04:10:50.646Z,1.00
2022-09-18T04:11:11.235Z,1.10
2022-09-18T04:11:31.814Z,1.10
2022-09-18T04:11:52.398Z,0.90
2022-09-18T04:12:12.984Z,0.90
2022-09-18T04:12:33.570Z,1.00
2022-09-18T04:12:54.152Z,1.10
2022-09-18T04:13:14.734Z,1.00
2022-09-18T04:13:35.319Z,1.10
2022-09-18T04:13:55.901Z,1.00
2022-09-18T04:14:16.485Z,1.00
2022-09-18T04:14:37.066Z,1.00
2022-09-18T04:14:57.649Z,0.90
2022-09-18T04:15:18.237Z,0.90
2022-09-18T04:15:38.834Z,1.10
2022-09-18T04:15:59.430Z,1.30
2022-09-18T04:16:20.086Z,1.30
2022-09-18T04:16:40.505Z,1.20
2022-09-18T04:17:01.043Z,1.20
2022-09-18T04:17:21.627Z,1.00
2022-09-18T04:17:42.209Z,0.70
2022-09-18T04:18:02.794Z,0.90
2022-09-18T04:18:23.379Z,0.90
2022-09-18T04:18:43.959Z,1.10
2022-09-18T04:19:04.543Z,0.90
2022-09-18T04:19:25.120Z,0.90
2022-09-18T04:19:49.035Z,1.00
2022-09-18T04:20:06.109Z,0.90
2022-09-18T04:20:26.701Z,0.90
2022-09-18T04:20:47.283Z,1.20
2022-09-18T04:21:07.862Z,1.30
2022-09-18T04:21:28.444Z,1.10
2022-09-18T04:21:49.032Z,1.10
2022-09-18T04:22:09.614Z,1.20
2022-09-18T04:22:30.196Z,0.80
2022-09-18T04:22:50.772Z,0.90
2022-09-18T04:23:11.169Z,0.90
2022-09-18T04:23:31.744Z,0.90
2022-09-18T04:23:52.336Z,1.10
2022-09-18T04:24:12.916Z,1.10
2022-09-18T04:24:33.499Z,1.00
2022-09-18T04:24:53.893Z,1.10
2022-09-18T04:25:14.473Z,1.00
2022-09-18T04:25:35.074Z,1.20
2022-09-18T04:25:55.470Z,1.20
2022-09-18T04:26:16.050Z,1.00
2022-09-18T04:26:36.443Z,1.00
2022-09-18T04:26:57.024Z,1.20
2022-09-18T04:27:17.421Z,1.50
2022-09-18T04:27:37.999Z,1.50
2022-09-18T04:27:58.584Z,1.20
2022-09-18T04:28:19.166Z,1.10
2022-09-18T04:28:39.748Z,1.00
2022-09-18T04:29:00.336Z,1.10
2022-09-18T04:29:20.919Z,1.00
2022-09-18T04:29:41.499Z,0.90
2022-09-18T04:30:02.081Z,0.90
2022-09-18T04:30:22.680Z,1.30
2022-09-18T04:30:43.263Z,1.20
2022-09-18T04:31:03.947Z,1.10
2022-09-18T04:31:24.582Z,1.10
2022-09-18T04:31:45.401Z,1.00
2022-09-18T04:32:05.985Z,1.00
2022-09-18T04:32:26.575Z,1.10
2022-09-18T04:32:47.152Z,1.00
2022-09-18T04:33:07.740Z,1.00
2022-09-18T04:33:28.323Z,1.20
2022-09-18T04:33:48.984Z,1.20
2022-09-18T04:34:09.545Z,1.10
2022-09-18T04:34:30.129Z,1.20
2022-09-18T04:34:50.527Z,1.00
2022-09-18T04:35:11.112Z,0.90
2022-09-18T04:35:31.706Z,1.10
2022-09-18T04:35:52.291Z,1.10
2022-09-18T04:36:12.874Z,1.10
2022-09-18T04:36:33.451Z,1.00
2022-09-18T04:36:54.041Z,1.10
2022-09-18T04:37:14.625Z,0.90
2022-09-18T04:37:35.211Z,0.90
2022-09-18T04:37:55.789Z,1.00
2022-09-18T04:38:16.374Z,0.90
2022-09-18T04:38:36.960Z,0.80
2022-09-18T04:38:57.543Z,0.90
2022-09-18T04:39:18.126Z,0.90
2022-09-18T04:39:38.711Z,0.80
2022-09-18T04:39:59.391Z,1.00
2022-09-18T04:40:20.049Z,1.00
2022-09-18T04:40:40.673Z,1.20
2022-09-18T04:41:01.014Z,0.80
2022-09-18T04:41:21.596Z,1.00
2022-09-18T04:41:42.187Z,0.80
2022-09-18T04:42:02.767Z,1.00
2022-09-18T04:42:23.358Z,0.80
2022-09-18T04:42:43.942Z,1.10
2022-09-18T04:43:04.528Z,0.80
2022-09-18T04:43:25.118Z,0.70
2022-09-18T04:43:45.698Z,0.70
2022-09-18T04:44:06.276Z,0.70
2022-09-18T04:44:26.671Z,0.70
2022-09-18T04:44:47.259Z,1.00
2022-09-18T04:45:07.859Z,0.90
2022-09-18T04:45:28.435Z,0.90
2022-09-18T04:45:49.014Z,0.80
2022-09-18T04:46:09.761Z,0.80
2022-09-18T04:46:30.387Z,0.60
2022-09-18T04:46:51.179Z,0.80
2022-09-18T04:47:11.794Z,0.90
2022-09-18T04:47:32.371Z,1.10
2022-09-18T04:47:52.957Z,0.80
2022-09-18T04:48:13.540Z,1.10
2022-09-18T04:48:34.122Z,0.90
2022-09-18T04:48:54.707Z,1.00
2022-09-18T04:49:15.285Z,1.20
2022-09-18T04:49:35.872Z,1.00
2022-09-18T04:49:56.453Z,1.00
2022-09-18T04:50:17.031Z,1.00
2022-09-18T04:50:37.631Z,0.80
2022-09-18T04:50:58.211Z,0.80
2022-09-18T04:51:18.791Z,0.80
2022-09-18T04:51:39.375Z,0.80
2022-09-18T04:51:59.958Z,0.70
2022-09-18T04:52:20.537Z,0.80
2022-09-18T04:52:41.122Z,0.90
2022-09-18T04:53:01.704Z,0.80
2022-09-18T04:53:22.286Z,0.90
2022-09-18T04:53:42.870Z,0.80
2022-09-18T04:54:03.505Z,0.90
2022-09-18T04:54:23.850Z,0.80
2022-09-18T04:54:44.436Z,0.90
2022-09-18T04:55:05.017Z,0.90
2022-09-18T04:55:25.615Z,0.90
2022-09-18T04:55:46.194Z,0.80
2022-09-18T04:56:06.775Z,0.80
2022-09-18T04:56:27.360Z,0.80
2022-09-18T04:56:47.933Z,0.90
2022-09-18T04:57:08.518Z,1.00
2022-09-18T04:57:29.101Z,1.00
2022-09-18T04:57:54.260Z,0.90
2022-09-18T04:58:10.019Z,0.80
2022-09-18T04:58:30.597Z,0.90
2022-09-18T04:58:51.185Z,1.00
2022-09-18T04:59:11.761Z,0.90
2022-09-18T04:59:32.347Z,0.90
2022-09-18T04:59:52.937Z,0.80
2022-09-18T05:00:13.520Z,0.80
2022-09-18T05:00:34.201Z,0.90
2022-09-18T05:00:54.865Z,0.90
2022-09-18T05:01:15.587Z,0.90
2022-09-18T05:01:36.240Z,0.90
2022-09-18T05:01:57.065Z,1.10
2022-09-18T05:02:17.715Z,1.00
2022-09-18T05:02:38.319Z,0.90
2022-09-18T05:02:58.900Z,0.90
2022-09-18T05:03:19.483Z,0.90
2022-09-18T05:03:40.062Z,1.00
2022-09-18T05:04:00.642Z,1.00
2022-09-18T05:04:21.223Z,0.90
2022-09-18T05:04:41.808Z,0.80
2022-09-18T05:05:02.392Z,0.80
2022-09-18T05:05:22.996Z,0.90
2022-09-18T05:05:43.579Z,1.00
2022-09-18T05:06:04.162Z,1.10
2022-09-18T05:06:24.746Z,1.00
2022-09-18T05:06:45.324Z,1.10
2022-09-18T05:07:05.915Z,1.10
2022-09-18T05:07:26.500Z,1.10
2022-09-18T05:07:47.084Z,0.90
2022-09-18T05:08:07.670Z,1.00
2022-09-18T05:08:28.251Z,0.90
2022-09-18T05:08:48.833Z,0.80
2022-09-18T05:09:09.468Z,0.70
2022-09-18T05:09:30.047Z,0.90
2022-09-18T05:09:50.636Z,1.00
2022-09-18T05:10:11.219Z,0.80
2022-09-18T05:10:31.821Z,0.80
2022-09-18T05:10:52.404Z,0.70
2022-09-18T05:11:12.987Z,0.70
2022-09-18T05:11:33.567Z,1.00
2022-09-18T05:11:54.152Z,0.90
2022-09-18T05:12:14.733Z,0.80
2022-09-18T05:12:35.320Z,1.10
2022-09-18T05:12:55.902Z,1.00
2022-09-18T05:13:16.484Z,1.10
2022-09-18T05:13:37.070Z,0.90
2022-09-18T05:13:57.660Z,0.80
2022-09-18T05:14:18.241Z,1.10
2022-09-18T05:14:38.825Z,1.10
2022-09-18T05:14:59.402Z,0.90
2022-09-18T05:15:19.996Z,0.80
2022-09-18T05:15:40.578Z,0.80
2022-09-18T05:16:01.006Z,0.80
2022-09-18T05:16:21.682Z,0.80
2022-09-18T05:16:42.235Z,0.90
2022-09-18T05:17:02.936Z,0.90
2022-09-18T05:17:23.469Z,0.90
2022-09-18T05:17:44.049Z,1.00
2022-09-18T05:18:09.064Z,0.90
2022-09-18T05:18:25.035Z,0.90
2022-09-18T05:18:45.613Z,0.90
2022-09-18T05:19:06.195Z,1.00
2022-09-18T05:19:26.777Z,0.90
2022-09-18T05:19:47.364Z,0.80
2022-09-18T05:20:07.951Z,0.90
2022-09-18T05:20:28.358Z,1.00
2022-09-18T05:20:48.941Z,1.00
2022-09-18T05:21:09.524Z,1.10
2022-09-18T05:21:30.104Z,0.80
2022-09-18T05:21:50.689Z,1.20
2022-09-18T05:22:11.269Z,0.90
2022-09-18T05:22:31.854Z,0.80
2022-09-18T05:22:52.440Z,1.00
2022-09-18T05:23:13.023Z,0.90
2022-09-18T05:23:33.605Z,1.00
2022-09-18T05:23:54.188Z,0.90
2022-09-18T05:24:14.774Z,1.00
2022-09-18T05:24:35.355Z,0.90
2022-09-18T05:24:55.944Z,1.00
2022-09-18T05:25:16.533Z,0.90
2022-09-18T05:25:37.120Z,1.00
2022-09-18T05:25:57.701Z,1.20
2022-09-18T05:26:18.289Z,1.00
2022-09-18T05:26:38.870Z,0.90
2022-09-18T05:26:59.457Z,1.00
2022-09-18T05:27:24.749Z,0.80
2022-09-18T05:27:40.429Z,1.00
2022-09-18T05:28:01.010Z,1.00
2022-09-18T05:28:21.407Z,0.90
2022-09-18T05:28:41.989Z,0.80
2022-09-18T05:29:02.570Z,1.00
2022-09-18T05:29:23.152Z,0.90
2022-09-18T05:29:43.732Z,0.70
2022-09-18T05:30:04.307Z,0.80
2022-09-18T05:30:24.915Z,1.00
2022-09-18T05:30:45.497Z,1.00
2022-09-18T05:31:05.948Z,0.80
2022-09-18T05:31:26.649Z,1.20
2022-09-18T05:31:47.313Z,1.10
2022-09-18T05:32:08.015Z,0.90
2022-09-18T05:32:28.543Z,0.90
2022-09-18T05:32:48.939Z,0.70
2022-09-18T05:33:09.514Z,0.80
2022-09-18T05:33:30.097Z,0.80
2022-09-18T05:33:50.723Z,0.80
2022-09-18T05:34:11.296Z,0.80
2022-09-18T05:34:31.880Z,0.80
2022-09-18T05:34:52.462Z,1.00
2022-09-18T05:35:12.852Z,1.00
2022-09-18T05:35:33.262Z,0.90
2022-09-18T05:35:53.849Z,0.90
2022-09-18T05:36:14.428Z,0.90
2022-09-18T05:36:34.826Z,0.90
2022-09-18T05:36:55.404Z,0.80
2022-09-18T05:37:15.988Z,0.80
2022-09-18T05:37:36.570Z,0.80
2022-09-18T05:37:57.171Z,0.90
2022-09-18T05:38:17.747Z,0.80
2022-09-18T05:38:38.326Z,0.90
2022-09-18T05:38:58.909Z,0.90
2022-09-18T05:39:19.490Z,0.90
2022-09-18T05:39:40.072Z,0.80
2022-09-18T05:40:00.705Z,0.90
2022-09-18T05:40:21.142Z,0.90
2022-09-18T05:40:41.493Z,0.70
2022-09-18T05:41:01.880Z,0.60
2022-09-18T05:41:22.253Z,0.70
2022-09-18T05:41:42.827Z,0.80
2022-09-18T05:42:03.409Z,0.80
2022-09-18T05:42:23.993Z,0.90
2022-09-18T05:42:44.575Z,0.80
2022-09-18T05:43:05.157Z,0.80
2022-09-18T05:43:25.749Z,0.80
2022-09-18T05:43:46.337Z,0.80
2022-09-18T05:44:06.914Z,0.80
2022-09-18T05:44:27.496Z,0.70
2022-09-18T05:44:48.077Z,0.70
2022-09-18T05:45:08.647Z,0.70
2022-09-18T05:45:29.244Z,0.90
2022-09-18T05:45:49.829Z,0.80
2022-09-18T05:46:10.457Z,0.70
2022-09-18T05:46:31.115Z,0.60
2022-09-18T05:46:51.779Z,0.60
2022-09-18T05:47:12.491Z,0.60
2022-09-18T05:47:33.021Z,0.60
2022-09-18T05:47:53.604Z,0.90
2022-09-18T05:48:14.186Z,0.70
2022-09-18T05:48:34.772Z,0.80
2022-09-18T05:48:55.354Z,0.60
2022-09-18T05:49:15.937Z,0.80
2022-09-18T05:49:36.517Z,0.70
2022-09-18T05:49:57.109Z,0.90
2022-09-18T05:50:17.695Z,0.80
2022-09-18T05:50:38.287Z,0.80
2022-09-18T05:50:58.686Z,0.70
2022-09-18T05:51:19.269Z,0.70
2022-09-18T05:51:39.852Z,0.70
2022-09-18T05:52:00.432Z,0.70
2022-09-18T05:52:21.004Z,0.70
2022-09-18T05:52:41.589Z,0.70
2022-09-18T05:53:02.169Z,0.70
2022-09-18T05:53:22.566Z,0.60
2022-09-18T05:53:43.157Z,0.70
2022-09-18T05:54:03.789Z,0.80
2022-09-18T05:54:24.397Z,0.70
2022-09-18T05:54:44.984Z,0.90
2022-09-18T05:55:05.568Z,0.80
2022-09-18T05:55:25.985Z,0.60
2022-09-18T05:55:46.563Z,0.80
2022-09-18T05:56:07.136Z,0.90
2022-09-18T05:56:27.721Z,0.70
2022-09-18T05:56:48.300Z,0.70
2022-09-18T05:57:08.884Z,0.70
2022-09-18T05:57:29.464Z,0.80
2022-09-18T05:57:50.049Z,0.70
2022-09-18T05:58:10.629Z,0.70
2022-09-18T05:58:31.208Z,0.70
2022-09-18T05:58:51.794Z,0.70
2022-09-18T05:59:12.380Z,0.70
2022-09-18T05:59:32.769Z,0.70
2022-09-18T05:59:53.354Z,0.60
2022-09-18T06:00:13.941Z,0.70
2022-09-18T06:00:34.537Z,0.80
2022-09-18T06:00:55.117Z,0.70
2022-09-18T06:01:15.697Z,0.60
2022-09-18T06:01:36.322Z,0.60
2022-09-18T06:01:56.907Z,0.70
2022-09-18T06:02:17.674Z,0.70
2022-09-18T06:02:38.269Z,0.80
2022-09-18T06:02:58.941Z,0.80
2022-09-18T06:03:19.600Z,0.60
2022-09-18T06:03:40.191Z,0.70
2022-09-18T06:04:00.769Z,0.60
2022-09-18T06:04:21.352Z,0.70
2022-09-18T06:04:41.932Z,0.90
2022-09-18T06:05:02.516Z,0.80
2022-09-18T06:05:23.108Z,0.80
2022-09-18T06:05:43.692Z,0.70
2022-09-18T06:06:04.274Z,0.50
2022-09-18T06:06:24.855Z,0.70
2022-09-18T06:06:45.443Z,0.60
2022-09-18T06:07:06.019Z,0.60
2022-09-18T06:07:26.601Z,0.80
2022-09-18T06:07:47.189Z,0.70
2022-09-18T06:08:07.769Z,0.80
2022-09-18T06:08:28.352Z,0.60
2022-09-18T06:08:48.934Z,0.60
2022-09-18T06:09:09.516Z,0.80
2022-09-18T06:09:30.100Z,0.70
2022-09-18T06:09:50.679Z,0.70
2022-09-18T06:10:11.261Z,0.80
2022-09-18T06:10:31.860Z,0.60
2022-09-18T06:10:52.443Z,0.70
2022-09-18T06:11:13.026Z,0.70
2022-09-18T06:11:33.611Z,0.60
2022-09-18T06:11:54.191Z,0.50
2022-09-18T06:12:14.771Z,0.70
2022-09-18T06:12:35.357Z,0.70
2022-09-18T06:12:55.938Z,0.60
2022-09-18T06:13:16.528Z,0.50
2022-09-18T06:13:37.107Z,0.60
2022-09-18T06:13:57.695Z,0.80
2022-09-18T06:14:18.272Z,0.80
2022-09-18T06:14:38.856Z,0.70
2022-09-18T06:14:59.438Z,0.50
2022-09-18T06:15:20.035Z,0.50
2022-09-18T06:15:40.619Z,0.60
2022-09-18T06:16:01.287Z,0.80
2022-09-18T06:16:21.875Z,0.60
2022-09-18T06:16:42.739Z,0.50
2022-09-18T06:17:03.307Z,0.70
2022-09-18T06:17:24.016Z,0.90
2022-09-18T06:17:44.543Z,0.70
2022-09-18T06:18:05.136Z,0.60
2022-09-18T06:18:25.712Z,0.80
2022-09-18T06:18:46.289Z,1.00
2022-09-18T06:19:06.869Z,0.90
2022-09-18T06:19:27.463Z,0.80
2022-09-18T06:19:48.041Z,0.70
2022-09-18T06:20:08.623Z,0.60
2022-09-18T06:20:29.228Z,0.70
2022-09-18T06:20:49.807Z,0.50
2022-09-18T06:21:10.390Z,0.60
2022-09-18T06:21:30.975Z,0.70
2022-09-18T06:21:51.559Z,0.60
2022-09-18T06:22:12.142Z,0.70
2022-09-18T06:22:32.726Z,0.80
2022-09-18T06:22:53.121Z,0.70
2022-09-18T06:23:13.703Z,0.70
2022-09-18T06:23:34.289Z,0.90
2022-09-18T06:23:54.873Z,0.80
2022-09-18T06:24:15.264Z,0.80
2022-09-18T06:24:35.857Z,0.70
2022-09-18T06:24:56.439Z,0.80
2022-09-18T06:25:17.022Z,0.60
2022-09-18T06:25:37.620Z,0.70
2022-09-18T06:25:58.199Z,0.80
2022-09-18T06:26:18.780Z,0.60
2022-09-18T06:26:39.180Z,1.00
2022-09-18T06:26:59.571Z,0.80
2022-09-18T06:27:20.154Z,0.70
2022-09-18T06:27:40.740Z,0.60
2022-09-18T06:28:01.327Z,0.60
2022-09-18T06:28:21.900Z,0.70
2022-09-18T06:28:42.490Z,0.90
2022-09-18T06:29:03.070Z,0.70
2022-09-18T06:29:23.655Z,0.90
2022-09-18T06:29:44.237Z,0.90
2022-09-18T06:30:04.820Z,0.80
2022-09-18T06:30:25.416Z,0.70
2022-09-18T06:30:45.998Z,1.00
2022-09-18T06:31:06.617Z,1.00
2022-09-18T06:31:27.231Z,0.70
2022-09-18T06:31:47.880Z,0.70
2022-09-18T06:32:08.456Z,1.00
2022-09-18T06:32:29.154Z,1.00
2022-09-18T06:32:49.697Z,0.60
2022-09-18T06:33:10.280Z,0.60
2022-09-18T06:33:30.867Z,0.60
2022-09-18T06:33:51.583Z,0.60
2022-09-18T06:34:12.142Z,0.60
2022-09-18T06:34:36.655Z,0.70